createdAt,value
2019-04-16T00:02:23.687Z,54.57
2019-04-16T00:05:03.022Z,54.07
2019-04-16T00:07:51.383Z,53.20
2019-04-16T00:10:46.425Z,57.63
2019-04-16T00:13:25.865Z,57.70
2019-04-16T00:15:56.119Z,54.00
2019-04-16T00:18:26.227Z,51.13
2019-04-16T00:21:18.217Z,51.10
2019-04-16T00:24:10.116Z,60.30
2019-04-16T00:26:42.003Z,51.90
2019-04-16T00:29:12.099Z,50.60
2019-04-16T00:31:43.243Z,61.23
2019-04-16T00:34:14.419Z,58.27
2019-04-16T00:36:48.489Z,58.30
2019-04-16T00:39:16.634Z,58.77
2019-04-16T00:41:46.763Z,57.38
2019-04-16T00:44:16.837Z,55.30
2019-04-16T00:46:46.942Z,52.50
2019-04-16T00:49:17.152Z,53.70
2019-04-16T00:51:47.364Z,55.17
2019-04-16T00:54:17.455Z,57.35
2019-04-16T00:56:47.714Z,52.00
2019-04-16T00:59:17.801Z,50.20
2019-04-16T01:01:47.965Z,46.63
2019-04-16T01:04:18.082Z,61.17
2019-04-16T01:06:48.240Z,48.53
2019-04-16T01:09:18.496Z,52.47
2019-04-16T01:11:48.928Z,52.03
2019-04-16T01:14:19.833Z,52.37
2019-04-16T01:16:50.064Z,51.47
2019-04-16T01:19:20.195Z,51.53
2019-04-16T01:21:50.371Z,55.48
2019-04-16T01:24:21.193Z,54.40
2019-04-16T01:26:51.360Z,55.23
2019-04-16T01:29:21.469Z,50.33
2019-04-16T01:32:11.939Z,49.40
2019-04-16T01:34:59.737Z,51.10
2019-04-16T01:37:56.737Z,51.47
2019-04-16T01:40:35.886Z,47.90
2019-04-16T01:43:06.064Z,53.50
2019-04-16T01:45:36.149Z,46.23
2019-04-16T01:48:08.018Z,52.60
2019-04-16T01:50:38.048Z,55.83
2019-04-16T01:53:08.266Z,48.07
2019-04-16T01:55:38.363Z,48.65
2019-04-16T01:58:08.456Z,47.53
2019-04-16T02:00:39.266Z,45.83
2019-04-16T02:03:10.600Z,46.80
2019-04-16T02:05:40.808Z,47.23
2019-04-16T02:08:11.038Z,46.60
2019-04-16T02:10:41.163Z,45.53
2019-04-16T02:13:14.565Z,42.83
2019-04-16T02:15:43.219Z,43.90
2019-04-16T02:18:13.345Z,44.07
2019-04-16T02:20:43.480Z,46.13
2019-04-16T02:23:16.468Z,49.20
2019-04-16T02:25:45.432Z,44.05
2019-04-16T02:28:15.559Z,44.27
2019-04-16T02:30:45.654Z,46.53
2019-04-16T02:33:17.305Z,45.60
2019-04-16T02:35:47.396Z,43.90
2019-04-16T02:38:17.583Z,42.73
2019-04-16T02:40:52.932Z,43.63
2019-04-16T02:43:20.595Z,45.87
2019-04-16T02:45:56.686Z,46.57
2019-04-16T02:48:22.498Z,45.40
2019-04-16T02:51:05.332Z,42.13
2019-04-16T02:53:58.840Z,49.90
2019-04-16T02:56:51.558Z,48.00
2019-04-16T02:59:24.040Z,46.13
2019-04-16T03:02:31.458Z,43.60
2019-04-16T03:05:07.166Z,47.17
2019-04-16T03:07:37.440Z,45.97
2019-04-16T03:10:12.029Z,42.37
2019-04-16T03:12:39.470Z,43.40
2019-04-16T03:15:09.701Z,40.50
2019-04-16T03:17:45.411Z,43.03
2019-04-16T03:20:16.319Z,48.40
2019-04-16T03:22:46.407Z,45.57
2019-04-16T03:25:16.578Z,44.93
2019-04-16T03:27:46.647Z,43.97
2019-04-16T03:30:16.794Z,43.40
2019-04-16T03:32:50.729Z,45.70
2019-04-16T03:35:25.524Z,45.57
2019-04-16T03:37:52.808Z,43.20
2019-04-16T03:40:25.410Z,44.10
2019-04-16T03:42:58.876Z,40.10
2019-04-16T03:45:26.544Z,47.30
2019-04-16T03:47:56.655Z,47.93
2019-04-16T03:50:31.032Z,42.73
2019-04-16T03:52:58.667Z,44.60
2019-04-16T03:55:28.739Z,43.30
2019-04-16T03:57:58.967Z,44.63
2019-04-16T04:00:29.258Z,48.58
2019-04-16T04:02:59.379Z,40.23
2019-04-16T04:05:29.440Z,42.20
2019-04-16T04:08:01.949Z,41.90
2019-04-16T04:10:36.873Z,45.25
2019-04-16T04:13:04.980Z,47.10
2019-04-16T04:15:35.410Z,42.53
2019-04-16T04:18:07.828Z,41.90
2019-04-16T04:20:37.434Z,44.57
2019-04-16T04:23:07.679Z,43.53
2019-04-16T04:25:37.770Z,43.47
2019-04-16T04:28:07.890Z,45.43
2019-04-16T04:30:38.020Z,42.40
2019-04-16T04:33:12.010Z,44.97
2019-04-16T04:35:42.109Z,47.33
2019-04-16T04:38:12.283Z,41.10
2019-04-16T04:40:44.717Z,51.40
2019-04-16T04:43:14.289Z,44.27
2019-04-16T04:45:44.383Z,45.43
2019-04-16T04:48:14.541Z,43.27
2019-04-16T04:50:44.785Z,39.80
2019-04-16T04:53:15.634Z,43.13
2019-04-16T04:55:46.709Z,43.80
2019-04-16T04:58:17.039Z,41.60
2019-04-16T05:00:47.283Z,46.73
2019-04-16T05:03:36.335Z,44.33
2019-04-16T05:06:07.540Z,42.70
2019-04-16T05:08:37.861Z,41.73
2019-04-16T05:11:08.033Z,45.40
2019-04-16T05:13:38.147Z,44.67
2019-04-16T05:16:08.268Z,39.98
2019-04-16T05:18:41.895Z,44.63
2019-04-16T05:21:10.196Z,57.93
2019-04-16T05:23:40.369Z,45.67
2019-04-16T05:26:10.654Z,40.33
2019-04-16T05:28:44.304Z,43.73
2019-04-16T05:31:12.649Z,42.33
2019-04-16T05:33:42.741Z,46.15
2019-04-16T05:36:14.226Z,47.43
2019-04-16T05:38:44.893Z,50.37
2019-04-16T05:41:20.514Z,51.02
2019-04-16T05:43:47.182Z,46.63
2019-04-16T05:46:17.397Z,44.80
2019-04-16T05:48:47.591Z,41.60
2019-04-16T05:51:17.838Z,48.30
2019-04-16T05:53:51.640Z,44.20
2019-04-16T05:56:27.005Z,46.10
2019-04-16T05:58:59.626Z,42.73
2019-04-16T06:01:42.403Z,48.47
2019-04-16T06:04:13.726Z,45.80
2019-04-16T06:06:43.952Z,44.70
2019-04-16T06:09:14.072Z,46.40
2019-04-16T06:11:44.260Z,50.37
2019-04-16T06:14:42.330Z,49.85
2019-04-16T06:17:49.447Z,45.33
2019-04-16T06:20:41.454Z,52.65
2019-04-16T06:23:36.180Z,48.20
2019-04-16T06:26:28.009Z,48.03
2019-04-16T06:29:11.695Z,46.90
2019-04-16T06:32:03.607Z,48.17
2019-04-16T06:35:00.863Z,46.07
2019-04-16T06:37:42.103Z,53.53
2019-04-16T06:40:32.686Z,49.53
2019-04-16T06:43:08.181Z,50.03
2019-04-16T06:45:43.155Z,51.73
2019-04-16T06:48:17.707Z,52.93
2019-04-16T06:51:11.689Z,51.48
2019-04-16T06:53:44.575Z,57.10
2019-04-16T06:56:32.965Z,52.25
2019-04-16T06:59:09.976Z,52.00
2019-04-16T07:01:59.073Z,49.67
2019-04-16T07:04:51.209Z,54.13
2019-04-16T07:07:40.292Z,58.30
2019-04-16T07:10:18.682Z,56.80
2019-04-16T07:12:48.925Z,54.00
2019-04-16T07:15:22.599Z,54.03
2019-04-16T07:17:51.035Z,55.97
2019-04-16T07:20:21.156Z,59.07
2019-04-16T07:22:53.041Z,56.03
2019-04-16T07:25:27.028Z,55.27
2019-04-16T07:28:00.676Z,56.40
2019-04-16T07:30:42.226Z,55.83
2019-04-16T07:33:19.984Z,56.83
2019-04-16T07:36:11.939Z,63.00
2019-04-16T07:38:50.913Z,55.40
2019-04-16T07:41:42.776Z,57.17
2019-04-16T07:44:15.478Z,57.17
2019-04-16T07:47:02.970Z,60.17
2019-04-16T07:49:59.817Z,62.43
2019-04-16T07:52:47.511Z,61.27
2019-04-16T07:55:27.827Z,61.37
2019-04-16T07:57:58.129Z,63.23
2019-04-16T08:00:28.207Z,59.53
2019-04-16T08:02:58.333Z,62.00
2019-04-16T08:05:28.608Z,57.17
2019-04-16T08:07:58.717Z,58.13
2019-04-16T08:10:28.957Z,62.77
2019-04-16T08:13:08.160Z,61.10
2019-04-16T08:15:38.305Z,62.27
2019-04-16T08:18:08.392Z,66.40
2019-04-16T08:20:38.465Z,61.17
2019-04-16T08:23:51.390Z,62.97
2019-04-16T08:26:17.392Z,62.10
2019-04-16T08:28:47.482Z,63.00
2019-04-16T08:31:26.075Z,62.75
2019-04-16T08:33:56.210Z,64.27
2019-04-16T08:36:26.337Z,65.93
2019-04-16T08:38:56.469Z,64.60
2019-04-16T08:41:26.632Z,69.83
2019-04-16T08:43:59.739Z,67.60
2019-04-16T08:46:30.395Z,93.70
2019-04-16T08:49:00.536Z,64.20
2019-04-16T08:51:37.033Z,70.30
2019-04-16T08:54:05.512Z,70.50
2019-04-16T08:56:35.876Z,72.80
2019-04-16T08:59:09.545Z,74.43
2019-04-16T09:01:38.184Z,69.17
2019-04-16T09:04:08.375Z,74.40
2019-04-16T09:06:42.632Z,70.13
2019-04-16T09:09:29.016Z,70.07
2019-04-16T09:12:02.023Z,73.10
2019-04-16T09:14:34.507Z,71.50
2019-04-16T09:17:16.291Z,74.00
2019-04-16T09:20:10.968Z,78.52
2019-04-16T09:22:48.763Z,76.12
2019-04-16T09:25:31.985Z,75.60
2019-04-16T09:28:24.673Z,75.30
2019-04-16T09:31:01.650Z,74.00
2019-04-16T09:33:45.643Z,74.30
2019-04-16T09:36:46.809Z,74.90
2019-04-16T09:39:34.011Z,77.20
2019-04-16T09:42:04.466Z,78.27
2019-04-16T09:44:35.445Z,75.90
2019-04-16T09:47:05.980Z,76.67
2019-04-16T09:49:37.678Z,79.20
2019-04-16T09:52:07.912Z,77.27
2019-04-16T09:54:38.111Z,78.70
2019-04-16T09:57:08.323Z,75.27
2019-04-16T09:59:49.833Z,79.77
2019-04-16T10:02:27.426Z,79.43
2019-04-16T10:05:05.835Z,80.37
2019-04-16T10:07:39.984Z,78.30
2019-04-16T10:10:08.224Z,79.03
2019-04-16T10:12:38.394Z,80.20
2019-04-16T10:15:08.748Z,80.97
2019-04-16T10:17:40.887Z,78.47
2019-04-16T10:20:12.060Z,81.10
2019-04-16T10:22:42.415Z,82.47
2019-04-16T10:25:13.944Z,83.40
2019-04-16T10:27:58.810Z,80.03
2019-04-16T10:30:39.836Z,81.30
2019-04-16T10:33:12.891Z,80.03
2019-04-16T10:35:43.067Z,82.67
2019-04-16T10:38:31.073Z,81.90
2019-04-16T10:41:07.067Z,79.90
2019-04-16T10:44:11.196Z,82.27
2019-04-16T10:47:05.182Z,81.67
2019-04-16T10:50:03.116Z,83.87
2019-04-16T10:52:58.301Z,84.40
2019-04-16T10:55:47.308Z,84.42
2019-04-16T10:58:34.931Z,86.17
2019-04-16T11:01:17.187Z,81.70
2019-04-16T11:03:56.084Z,83.30
2019-04-16T11:06:36.909Z,88.80
2019-04-16T11:09:08.215Z,81.40
2019-04-16T11:11:38.426Z,85.60
2019-04-16T11:14:08.773Z,85.30
2019-04-16T11:16:40.620Z,83.47
2019-04-16T11:19:10.760Z,84.93
2019-04-16T11:21:41.087Z,85.67
2019-04-16T11:24:11.561Z,88.23
2019-04-16T11:26:44.453Z,99.30
2019-04-16T11:29:16.993Z,85.25
2019-04-16T11:31:54.335Z,86.17
2019-04-16T11:34:23.205Z,87.60
2019-04-16T11:36:53.416Z,83.87
2019-04-16T11:39:31.982Z,90.37
2019-04-16T11:42:00.889Z,84.07
2019-04-16T11:44:36.063Z,86.33
2019-04-16T11:47:06.949Z,84.77
2019-04-16T11:49:38.973Z,82.70
2019-04-16T11:52:11.773Z,83.60
2019-04-16T11:54:46.847Z,87.47
2019-04-16T11:57:16.712Z,86.70
2019-04-16T11:59:47.302Z,86.37
2019-04-16T12:02:44.901Z,83.97
2019-04-16T12:05:20.129Z,82.67
2019-04-16T12:08:03.211Z,85.30
2019-04-16T12:11:00.522Z,86.30
2019-04-16T12:13:40.893Z,85.87
2019-04-16T12:16:24.366Z,86.10
2019-04-16T12:19:18.228Z,83.25
2019-04-16T12:22:06.353Z,86.17
2019-04-16T12:24:57.681Z,94.57
2019-04-16T12:27:45.623Z,87.80
2019-04-16T12:30:35.367Z,89.83
2019-04-16T12:33:30.332Z,88.60
2019-04-16T12:36:15.155Z,88.05
2019-04-16T12:39:00.795Z,89.80
2019-04-16T12:41:55.875Z,87.70
2019-04-16T12:44:44.389Z,88.07
2019-04-16T12:47:24.915Z,90.90
2019-04-16T12:50:22.915Z,90.93
2019-04-16T12:53:00.876Z,88.30
2019-04-16T12:55:56.016Z,90.75
2019-04-16T12:58:43.602Z,92.37
2019-04-16T13:01:27.547Z,92.87
2019-04-16T13:04:16.569Z,91.10
2019-04-16T13:06:59.014Z,94.70
2019-04-16T13:10:03.753Z,91.03
2019-04-16T13:12:53.372Z,95.10
2019-04-16T13:15:34.264Z,92.47
2019-04-16T13:22:39.670Z,89.37
2019-04-16T13:27:36.776Z,95.83
2019-04-16T13:30:09.540Z,99.33
2019-04-16T13:32:54.926Z,96.20
2019-04-16T13:35:18.808Z,90.97
2019-04-16T13:37:51.232Z,94.07
2019-04-16T13:40:21.583Z,90.30
2019-04-16T13:42:51.770Z,103.83
2019-04-16T13:45:33.280Z,93.77
2019-04-16T13:48:16.141Z,95.37
2019-04-16T13:50:44.167Z,94.97
2019-04-16T13:53:31.988Z,95.10
2019-04-16T13:56:19.665Z,98.23
2019-04-16T13:59:09.971Z,114.05
2019-04-16T14:01:46.176Z,105.78
2019-04-16T14:04:17.049Z,94.07
2019-04-16T14:06:48.806Z,94.60
2019-04-16T14:09:18.993Z,104.70
2019-04-16T14:11:51.271Z,95.77
2019-04-16T14:14:22.669Z,98.12
2019-04-16T14:16:52.868Z,98.80
2019-04-16T14:19:24.934Z,95.00
2019-04-16T14:22:01.052Z,131.20
2019-04-16T14:24:32.547Z,95.93
2019-04-16T14:27:03.191Z,97.00
2019-04-16T14:29:35.773Z,95.77
2019-04-16T14:32:05.572Z,99.13
2019-04-16T14:35:00.834Z,101.22
2019-04-16T14:37:30.928Z,105.83
2019-04-16T14:40:14.925Z,100.20
2019-04-16T14:42:45.099Z,96.20
2019-04-16T14:45:24.279Z,96.37
2019-04-16T14:47:54.441Z,96.43
2019-04-16T14:50:24.676Z,99.83
2019-04-16T14:52:55.180Z,97.55
2019-04-16T14:56:00.590Z,102.62
2019-04-16T14:58:53.806Z,99.97
2019-04-16T15:01:57.733Z,102.97
2019-04-16T15:04:45.550Z,98.13
2019-04-16T15:07:33.628Z,96.57
2019-04-16T15:10:22.805Z,103.17
2019-04-16T15:13:14.809Z,97.40
2019-04-16T15:15:48.682Z,94.90
2019-04-16T15:18:36.439Z,98.37
2019-04-16T15:21:25.464Z,98.93
2019-04-16T15:24:06.690Z,101.33
2019-04-16T15:26:53.457Z,98.07
2019-04-16T15:29:42.615Z,103.80
2019-04-16T15:32:30.372Z,100.43
2019-04-16T15:35:00.837Z,103.95
2019-04-16T15:37:37.704Z,98.47
2019-04-16T15:40:13.212Z,98.20
2019-04-16T15:42:53.145Z,126.30
2019-04-16T15:45:47.571Z,96.40
2019-04-16T15:48:39.435Z,95.43
2019-04-16T15:51:34.449Z,98.10
2019-04-16T15:54:22.082Z,97.97
2019-04-16T15:57:17.149Z,100.43
2019-04-16T16:00:24.488Z,96.70
2019-04-16T16:03:12.267Z,98.50
2019-04-16T16:05:45.742Z,96.22
2019-04-16T16:08:30.542Z,94.90
2019-04-16T16:11:03.396Z,97.30
2019-04-16T16:13:33.481Z,95.33
2019-04-16T16:16:03.581Z,93.60
2019-04-16T16:18:35.685Z,93.47
2019-04-16T16:21:05.704Z,93.42
2019-04-16T16:23:35.817Z,94.55
2019-04-16T16:26:06.221Z,93.77
2019-04-16T16:28:36.294Z,100.10
2019-04-16T16:31:06.413Z,96.97
2019-04-16T16:33:36.460Z,91.72
2019-04-16T16:36:06.664Z,89.90
2019-04-16T16:38:36.877Z,90.80
2019-04-16T16:41:07.035Z,88.27
2019-04-16T16:43:37.135Z,88.83
2019-04-16T16:46:25.689Z,88.27
2019-04-16T16:48:56.288Z,89.23
2019-04-16T16:51:26.433Z,87.83
2019-04-16T16:54:05.623Z,88.27
2019-04-16T16:56:44.939Z,90.77
2019-04-16T16:59:33.978Z,88.52
2019-04-16T17:02:16.554Z,86.37
2019-04-16T17:04:51.201Z,83.70
2019-04-16T17:07:21.428Z,87.07
2019-04-16T17:09:51.632Z,86.00
2019-04-16T17:12:22.125Z,84.47
2019-04-16T17:14:52.350Z,85.53
2019-04-16T17:17:22.612Z,84.47
2019-04-16T17:19:52.757Z,86.90
2019-04-16T17:22:23.023Z,87.17
2019-04-16T17:24:53.198Z,85.47
2019-04-16T17:27:25.123Z,86.07
2019-04-16T17:29:55.300Z,85.40
2019-04-16T17:32:25.644Z,86.20
2019-04-16T17:34:55.935Z,86.60
2019-04-16T17:37:28.752Z,83.47
2019-04-16T17:40:03.862Z,86.47
2019-04-16T17:42:43.234Z,85.60
2019-04-16T17:45:29.646Z,84.97
2019-04-16T17:48:05.010Z,83.77
2019-04-16T17:50:52.859Z,84.87
2019-04-16T17:53:42.037Z,81.07
2019-04-16T17:56:37.901Z,83.47
2019-04-16T17:59:10.933Z,79.20
2019-04-16T18:01:58.448Z,83.07
2019-04-16T18:04:58.093Z,82.30
2019-04-16T18:07:46.452Z,86.70
2019-04-16T18:10:34.036Z,80.10
2019-04-16T18:13:32.139Z,78.62
2019-04-16T18:16:21.192Z,79.17
2019-04-16T18:18:58.429Z,77.40
2019-04-16T18:21:47.777Z,78.77
2019-04-16T18:24:43.315Z,74.77
2019-04-16T18:27:44.680Z,82.00
2019-04-16T18:30:32.783Z,73.05
2019-04-16T18:33:24.685Z,84.40
2019-04-16T18:36:17.058Z,78.70
2019-04-16T18:39:09.758Z,76.40
2019-04-16T18:41:59.020Z,75.40
2019-04-16T18:44:46.716Z,77.03
2019-04-16T18:47:33.290Z,74.40
2019-04-16T18:50:08.065Z,71.17
2019-04-16T18:52:38.599Z,70.70
2019-04-16T18:55:09.059Z,70.90
2019-04-16T18:57:39.334Z,71.77
2019-04-16T19:00:31.993Z,75.33
2019-04-16T19:03:01.101Z,74.30
2019-04-16T19:05:31.526Z,76.57
2019-04-16T19:08:01.880Z,69.27
2019-04-16T19:10:32.253Z,79.50
2019-04-16T19:13:09.617Z,75.37
2019-04-16T19:15:36.241Z,76.90
2019-04-16T19:18:18.917Z,71.77
2019-04-16T19:20:39.350Z,70.70
2019-04-16T19:23:09.784Z,69.90
2019-04-16T19:25:40.251Z,69.60
2019-04-16T19:28:10.693Z,68.70
2019-04-16T19:30:44.709Z,73.67
2019-04-16T19:33:17.012Z,68.93
2019-04-16T19:35:51.931Z,64.70
2019-04-16T19:38:20.853Z,66.60
2019-04-16T19:40:51.848Z,66.33
2019-04-16T19:43:22.378Z,72.97
2019-04-16T19:45:52.869Z,72.93
2019-04-16T19:48:35.414Z,75.80
2019-04-16T19:50:55.373Z,73.17
2019-04-16T19:53:25.712Z,70.70
2019-04-16T19:55:55.944Z,68.33
2019-04-16T19:58:26.224Z,69.00
2019-04-16T20:00:57.400Z,65.97
2019-04-16T20:03:30.456Z,65.37
2019-04-16T20:06:01.018Z,75.57
2019-04-16T20:08:36.715Z,64.60
2019-04-16T20:11:03.954Z,66.97
2019-04-16T20:13:34.418Z,65.20
2019-04-16T20:16:06.979Z,70.00
2019-04-16T20:18:50.346Z,69.97
2019-04-16T20:21:09.452Z,66.73
2019-04-16T20:23:40.094Z,66.47
2019-04-16T20:26:10.303Z,64.43
2019-04-16T20:28:40.528Z,61.60
2019-04-16T20:31:12.756Z,65.40
2019-04-16T20:33:43.014Z,63.52
2019-04-16T20:36:14.121Z,66.80
2019-04-16T20:38:44.608Z,62.43
2019-04-16T20:41:18.063Z,59.13
2019-04-16T20:43:47.512Z,58.20
2019-04-16T20:46:17.999Z,64.83
2019-04-16T20:48:48.707Z,57.58
2019-04-16T20:51:19.325Z,63.57
2019-04-16T20:53:49.837Z,56.70
2019-04-16T20:56:21.582Z,57.93
2019-04-16T20:58:52.545Z,58.10
2019-04-16T21:01:33.927Z,60.95
2019-04-16T21:04:04.598Z,60.70
2019-04-16T21:06:29.700Z,61.97
2019-04-16T21:08:59.852Z,61.57
2019-04-16T21:11:29.929Z,58.00
2019-04-16T21:14:00.091Z,59.50
2019-04-16T21:16:33.477Z,57.50
2019-04-16T21:19:02.474Z,57.67
2019-04-16T21:21:32.617Z,58.73
2019-04-16T21:24:06.921Z,54.53
2019-04-16T21:26:34.684Z,57.43
2019-04-16T21:29:23.927Z,53.97
2019-04-16T21:31:58.644Z,59.53
2019-04-16T21:34:37.971Z,62.97
2019-04-16T21:37:29.917Z,61.20
2019-04-16T21:40:01.720Z,56.30
2019-04-16T21:42:34.828Z,54.67
2019-04-16T21:45:03.801Z,54.42
2019-04-16T21:47:33.910Z,52.13
2019-04-16T21:50:04.363Z,53.40
2019-04-16T21:52:34.543Z,54.90
2019-04-16T21:55:05.234Z,55.67
2019-04-16T21:57:35.388Z,52.70
2019-04-16T22:00:08.693Z,54.33
2019-04-16T22:02:39.645Z,59.33
2019-04-16T22:05:16.743Z,53.63
2019-04-16T22:07:43.687Z,53.00
2019-04-16T22:10:13.817Z,53.53
2019-04-16T22:12:44.706Z,52.20
2019-04-16T22:15:15.746Z,54.57
2019-04-16T22:17:45.917Z,57.10
2019-04-16T22:20:16.065Z,54.40
2019-04-16T22:22:47.371Z,54.77
2019-04-16T22:25:17.690Z,54.80
2019-04-16T22:27:47.751Z,55.67
2019-04-16T22:30:19.426Z,55.00
2019-04-16T22:32:49.735Z,60.33
2019-04-16T22:35:19.853Z,53.70
2019-04-16T22:37:49.961Z,58.30
2019-04-16T22:40:37.573Z,58.33
2019-04-16T22:43:23.415Z,53.65
2019-04-16T22:46:01.629Z,55.33
2019-04-16T22:48:35.830Z,56.53
2019-04-16T22:51:09.655Z,58.10
2019-04-16T22:53:39.944Z,54.77
2019-04-16T22:56:11.743Z,59.30
2019-04-16T22:58:48.396Z,53.28
2019-04-16T23:01:19.700Z,54.80
2019-04-16T23:03:53.335Z,58.67
2019-04-16T23:06:22.289Z,55.70
2019-04-16T23:08:52.407Z,56.23
2019-04-16T23:11:24.656Z,58.10
2019-04-16T23:13:54.743Z,61.10
2019-04-16T23:16:24.807Z,57.03
2019-04-16T23:18:54.978Z,60.77
2019-04-16T23:21:25.301Z,52.43
2019-04-16T23:23:55.597Z,54.80
2019-04-16T23:26:25.688Z,57.40
2019-04-16T23:28:56.844Z,55.63
2019-04-16T23:31:27.032Z,54.97
2019-04-16T23:33:57.474Z,55.13
2019-04-16T23:36:27.689Z,53.00
2019-04-16T23:39:00.521Z,54.53
2019-04-16T23:41:29.659Z,53.73
2019-04-16T23:44:22.671Z,59.17
2019-04-16T23:47:13.411Z,52.23
2019-04-16T23:49:48.622Z,50.10
2019-04-16T23:52:21.013Z,53.20
2019-04-16T23:55:16.342Z,51.90
2019-04-16T23:58:02.598Z,56.00
